Time;durP1;ratioP1;P1;durP2;ratioP2;P2;SDS_P1;SDS_P2;PMS_P1;PMS_P2;Temp;Humidity;BMP_temperature;BMP_pressure;BME280_temperature;BME280_humidity;BME280_pressure;Samples;Min_cycle;Max_cycle;Signal;HPM_P1;HPM_P2
2021/11/07 00:05:03;;;;;;;6.13;3.47;;;22.40;90.30;;;;;;5071998;28;20367;-67
2021/11/07 00:10:36;;;;;;;8.00;3.47;;;22.40;90.20;;;;;;5071717;28;20021;-66
2021/11/07 00:15:50;;;;;;;7.90;4.15;;;22.50;90.10;;;;;;5072691;28;20028;-68
2021/11/07 00:18:35;;;;;;;8.00;3.15;;;22.60;90.00;;;;;;5071826;28;20029;-65
2021/11/07 00:21:40;;;;;;;21.83;3.97;;;22.60;89.90;;;;;;5071652;28;20021;-63
2021/11/07 00:24:09;;;;;;;5.20;3.00;;;22.60;89.60;;;;;;5069942;28;20036;-65
2021/11/07 00:29:16;;;;;;;8.88;3.55;;;22.70;88.40;;;;;;5072542;28;20111;-66
2021/11/07 00:31:51;;;;;;;7.30;3.53;;;22.80;87.90;;;;;;5071431;28;20029;-63
2021/11/07 00:37:13;;;;;;;8.55;3.28;;;22.90;87.70;;;;;;5071702;28;20031;-59
2021/11/07 00:39:46;;;;;;;7.13;3.35;;;23.00;87.90;;;;;;5071128;28;20044;-60
2021/11/07 00:42:21;;;;;;;7.60;3.40;;;23.10;87.10;;;;;;5076118;28;20021;-68
2021/11/07 00:44:55;;;;;;;6.50;3.33;;;23.20;87.30;;;;;;5075649;28;20060;-64
2021/11/07 00:47:32;;;;;;;;;;;;;;;;;;;;;
2021/11/07 00:49:56;;;;;;;7.15;3.35;;;23.30;85.80;;;;;;5067409;28;20031;-64
2021/11/07 00:55:14;;;;;;;5.07;3.03;;;23.40;85.90;;;;;;5068968;28;20044;-65
2021/11/07 01:00:25;;;;;;;7.80;3.45;;;23.50;85.80;;;;;;5070661;28;20095;-61
2021/11/07 01:02:57;;;;;;;3.92;2.92;;;23.50;85.90;;;;;;5071999;28;20028;-61
2021/11/07 01:05:28;;;;;;;6.18;3.40;;;23.50;85.80;;;;;;5068976;28;20025;-65
2021/11/07 01:07:57;;;;;;;8.73;3.25;;;23.50;86.00;;;;;;5069098;28;20474;-61
2021/11/07 01:10:27;;;;;;;6.57;3.90;;;23.60;86.00;;;;;;5068504;28;20032;-62
2021/11/07 01:12:55;;;;;;;5.15;2.80;;;23.60;86.40;;;;;;5072410;28;20033;-62
2021/11/07 01:15:24;;;;;;;6.20;3.60;;;23.50;86.40;;;;;;5072373;28;20498;-64
2021/11/07 01:17:54;;;;;;;7.68;3.05;;;23.50;86.30;;;;;;5070617;28;20041;-61
2021/11/07 01:20:26;;;;;;;5.75;3.38;;;23.50;87.00;;;;;;5068353;28;20032;-63
2021/11/07 01:25:30;;;;;;;6.05;3.20;;;23.50;86.50;;;;;;5071306;28;20038;-62
2021/11/07 01:28:00;;;;;;;6.43;3.15;;;23.50;86.50;;;;;;5071896;28;20098;-64
2021/11/07 01:30:31;;;;;;;6.28;2.67;;;23.50;86.60;;;;;;5067989;28;20489;-66
2021/11/07 01:33:04;;;;;;;4.77;2.97;;;23.50;86.60;;;;;;5074403;28;20152;-67
2021/11/07 01:35:41;;;;;;;5.75;2.65;;;23.60;86.10;;;;;;5073939;28;20033;-69
2021/11/07 01:38:22;;;;;;;10.65;3.70;;;23.50;86.80;;;;;;5075445;28;20032;-67
2021/11/07 01:41:27;;;;;;;4.63;2.85;;;23.40;87.10;;;;;;5074745;28;20058;-68
2021/11/07 01:43:45;;;;;;;4.65;2.67;;;23.50;87.00;;;;;;5072122;28;20337;-67
2021/11/07 01:51:24;;;;;;;7.03;2.85;;;23.60;86.60;;;;;;5074129;28;20021;-69
2021/11/07 01:53:58;;;;;;;4.63;2.25;;;23.60;86.70;;;;;;5074341;28;20033;-66
2021/11/07 01:56:25;;;;;;;4.00;2.45;;;23.60;86.50;;;;;;5073819;28;20414;-67
2021/11/07 01:58:52;;;;;;;4.80;2.40;;;23.70;86.30;;;;;;5073373;28;20095;-65
2021/11/07 02:01:25;;;;;;;4.90;2.40;;;23.70;86.50;;;;;;5073291;28;20021;-65
2021/11/07 02:03:53;;;;;;;3.53;2.25;;;23.70;86.80;;;;;;5072944;28;20028;-71
2021/11/07 02:06:20;;;;;;;4.43;2.15;;;23.60;86.70;;;;;;5073733;28;20056;-67
2021/11/07 02:08:48;;;;;;;3.83;1.77;;;23.70;86.10;;;;;;5074339;28;20364;-70
2021/11/07 02:11:16;;;;;;;3.35;2.22;;;23.70;85.90;;;;;;5074814;28;20025;-68
2021/11/07 02:13:43;;;;;;;5.35;2.50;;;23.70;86.00;;;;;;5073925;28;20483;-69
2021/11/07 02:16:11;;;;;;;4.60;2.30;;;23.70;85.70;;;;;;5073984;28;20107;-71
2021/11/07 02:18:39;;;;;;;5.55;2.40;;;23.70;85.90;;;;;;5074183;28;20470;-71
2021/11/07 02:21:06;;;;;;;8.68;2.72;;;23.70;86.20;;;;;;5073960;28;20054;-60
2021/11/07 02:23:35;;;;;;;19.63;4.68;;;23.80;86.30;;;;;;5074086;28;20028;-62
2021/11/07 02:26:05;;;;;;;19.38;4.20;;;23.90;90.40;;;;;;5072990;28;20047;-62
2021/11/07 02:28:37;;;;;;;21.73;3.85;;;23.90;90.50;;;;;;5073251;28;20025;-61
2021/11/07 02:31:07;;;;;;;8.77;3.22;;;23.90;90.10;;;;;;5073515;28;20121;-60
2021/11/07 02:33:35;;;;;;;13.35;3.72;;;23.90;90.20;;;;;;5073353;28;20069;-63
2021/11/07 02:36:16;;;;;;;12.90;3.15;;;24.00;91.00;;;;;;5073172;28;20070;-62
2021/11/07 02:38:46;;;;;;;11.88;3.35;;;23.90;90.00;;;;;;5071836;28;20038;-59
2021/11/07 02:41:16;;;;;;;10.68;3.58;;;23.90;89.90;;;;;;5072907;28;20431;-60
2021/11/07 02:43:53;;;;;;;11.85;2.58;;;23.90;90.10;;;;;;5072426;28;20056;-60
2021/11/07 02:46:21;;;;;;;5.95;2.30;;;23.80;90.10;;;;;;5072888;28;20036;-61
2021/11/07 02:48:55;;;;;;;13.82;2.72;;;23.90;89.70;;;;;;5073101;28;20020;-62
2021/11/07 02:51:32;;;;;;;12.45;3.45;;;23.90;90.10;;;;;;5072007;28;20036;-60
2021/11/07 02:54:05;;;;;;;12.85;3.30;;;23.80;90.40;;;;;;5072747;28;20035;-62
2021/11/07 02:56:34;;;;;;;11.73;3.28;;;23.80;90.40;;;;;;5071977;28;20083;-61
2021/11/07 02:59:01;;;;;;;7.10;3.22;;;23.70;90.30;;;;;;5072833;28;20467;-61
2021/11/07 03:01:29;;;;;;;8.80;3.38;;;23.70;90.20;;;;;;5072679;28;20043;-61
2021/11/07 03:04:07;;;;;;;8.35;3.10;;;23.70;90.20;;;;;;5071600;28;20107;-61
2021/11/07 03:06:36;;;;;;;9.38;3.20;;;23.70;90.60;;;;;;5072354;28;20059;-61
2021/11/07 03:09:11;;;;;;;11.15;3.15;;;23.60;90.50;;;;;;5072486;28;20028;-60
2021/11/07 03:11:42;;;;;;;9.60;3.05;;;23.60;90.60;;;;;;5072566;28;20036;-61
2021/11/07 03:14:14;;;;;;;7.75;3.15;;;23.60;90.90;;;;;;5072412;28;20391;-61
2021/11/07 03:16:43;;;;;;;11.70;3.00;;;23.60;90.90;;;;;;5072047;28;20067;-61
2021/11/07 03:19:11;;;;;;;7.80;3.20;;;23.50;90.80;;;;;;5072624;28;20028;-63
2021/11/07 03:21:40;;;;;;;13.70;3.33;;;23.40;91.30;;;;;;5072188;28;20107;-61
2021/11/07 03:24:07;;;;;;;11.07;2.95;;;23.40;91.60;;;;;;5072185;28;20032;-64
2021/11/07 03:26:37;;;;;;;11.90;3.05;;;23.40;91.60;;;;;;5071462;28;20383;-62
2021/11/07 03:29:07;;;;;;;9.98;3.20;;;23.40;91.80;;;;;;5071002;28;20028;-62
2021/11/07 03:31:50;;;;;;;16.33;4.07;;;23.40;92.00;;;;;;5070591;28;20031;-64
2021/11/07 03:34:29;;;;;;;9.05;2.90;;;23.30;92.20;;;;;;5071759;28;20036;-65
2021/11/07 03:37:00;;;;;;;15.13;3.60;;;23.10;92.00;;;;;;5072039;28;20074;-64
2021/11/07 03:39:30;;;;;;;12.82;3.10;;;23.10;93.40;;;;;;5072099;28;20475;-62
2021/11/07 03:41:58;;;;;;;16.23;3.53;;;23.00;92.80;;;;;;5071876;28;20493;-62
2021/11/07 03:44:25;;;;;;;6.07;2.60;;;22.90;92.80;;;;;;5071909;28;20108;-66
2021/11/07 03:46:55;;;;;;;9.90;3.00;;;22.90;93.10;;;;;;5071977;28;20096;-61
2021/11/07 03:49:24;;;;;;;7.30;2.65;;;22.90;93.10;;;;;;5072213;28;20047;-60
2021/11/07 03:51:53;;;;;;;11.32;4.32;;;22.80;92.90;;;;;;5071900;28;20036;-66
2021/11/07 03:54:23;;;;;;;9.88;3.83;;;22.70;92.80;;;;;;5064467;28;20434;-60
2021/11/07 03:56:50;;;;;;;11.52;3.63;;;22.80;93.80;;;;;;5068823;28;20052;-63
2021/11/07 03:59:19;;;;;;;19.05;3.67;;;22.70;93.30;;;;;;5068585;28;20032;-64
2021/11/07 04:01:46;;;;;;;11.68;3.28;;;22.70;93.50;;;;;;5069667;28;20087;-61
2021/11/07 04:04:14;;;;;;;16.27;3.13;;;22.80;93.60;;;;;;5068877;28;20060;-67
2021/11/07 04:06:42;;;;;;;11.65;3.25;;;22.80;93.80;;;;;;5070978;28;20383;-64
2021/11/07 04:09:10;;;;;;;16.23;3.13;;;22.90;93.80;;;;;;5069374;28;20070;-71
2021/11/07 04:11:40;;;;;;;8.20;2.92;;;22.70;93.30;;;;;;5070243;28;20533;-70
2021/11/07 04:14:10;;;;;;;16.77;3.33;;;22.40;93.80;;;;;;5071037;28;20047;-71
2021/11/07 04:16:38;;;;;;;13.25;2.90;;;22.50;94.60;;;;;;5076368;28;20038;-70
2021/11/07 04:19:08;;;;;;;14.73;3.08;;;22.50;94.60;;;;;;5070467;28;20075;-70
2021/11/07 04:21:36;;;;;;;15.80;3.08;;;22.70;94.60;;;;;;5076758;28;20074;-72
2021/11/07 04:24:04;;;;;;;18.15;3.47;;;22.80;94.30;;;;;;5077131;28;20020;-70
2021/11/07 04:26:31;;;;;;;20.05;3.63;;;22.80;94.30;;;;;;5076831;28;20025;-65
2021/11/07 04:28:59;;;;;;;18.40;3.47;;;23.00;94.50;;;;;;5076766;28;20420;-69
2021/11/07 04:31:26;;;;;;;16.45;3.28;;;23.00;94.20;;;;;;5075398;28;20025;-72
2021/11/07 04:33:53;;;;;;;17.95;2.78;;;23.00;93.90;;;;;;5075911;28;20032;-66
2021/11/07 04:36:21;;;;;;;7.40;2.42;;;23.00;94.10;;;;;;5076279;28;20029;-63
2021/11/07 04:38:48;;;;;;;11.88;3.03;;;23.10;94.10;;;;;;5076309;28;20029;-68
2021/11/07 04:41:21;;;;;;;12.77;2.38;;;23.10;94.10;;;;;;5076512;28;20024;-65
2021/11/07 04:43:49;;;;;;;4.70;2.08;;;23.20;94.10;;;;;;5076331;28;20025;-67
2021/11/07 04:46:19;;;;;;;10.25;2.85;;;23.20;93.90;;;;;;5074816;28;20112;-67
2021/11/07 04:48:48;;;;;;;7.65;2.22;;;23.20;94.10;;;;;;5076000;28;20474;-70
2021/11/07 04:51:17;;;;;;;12.95;2.30;;;23.30;94.10;;;;;;5076688;28;20083;-75
2021/11/07 04:53:46;;;;;;;24.52;2.85;;;23.30;94.20;;;;;;5077950;28;20024;-66
2021/11/07 04:56:14;;;;;;;8.10;2.25;;;23.40;94.20;;;;;;5076682;28;20049;-70
2021/11/07 04:58:43;;;;;;;21.58;3.05;;;23.40;94.10;;;;;;5074420;28;20471;-65
2021/11/07 05:01:14;;;;;;;12.00;2.75;;;23.50;94.20;;;;;;5075845;28;20441;-69
2021/11/07 05:03:42;;;;;;;25.15;4.25;;;23.50;94.30;;;;;;5070965;28;20063;-67
2021/11/07 05:06:09;;;;;;;8.98;2.00;;;23.60;94.00;;;;;;5071021;28;20025;-69
2021/11/07 05:08:37;;;;;;;12.25;2.63;;;23.50;93.80;;;;;;5071649;28;20098;-71
2021/11/07 05:11:04;;;;;;;5.13;1.95;;;23.50;93.70;;;;;;5073593;28;20402;-70
2021/11/07 05:13:32;;;;;;;10.13;2.17;;;23.50;93.60;;;;;;5072886;28;20039;-68
2021/11/07 05:16:00;;;;;;;5.95;1.83;;;23.40;93.20;;;;;;5073251;28;20359;-70
2021/11/07 05:18:28;;;;;;;5.57;1.50;;;23.40;92.60;;;;;;5070910;28;20059;-67
2021/11/07 05:20:55;;;;;;;6.97;1.92;;;23.30;92.60;;;;;;5073155;28;20020;-64
2021/11/07 05:23:23;;;;;;;6.88;2.22;;;23.30;92.20;;;;;;5072382;28;20521;-71
2021/11/07 05:25:50;;;;;;;5.95;1.92;;;23.10;93.10;;;;;;5072096;28;20036;-62
2021/11/07 05:28:18;;;;;;;5.07;1.70;;;23.20;92.40;;;;;;5069200;28;20024;-63
2021/11/07 05:30:45;;;;;;;6.15;2.45;;;23.00;90.90;;;;;;5072232;28;20601;-60
2021/11/07 05:33:12;;;;;;;5.40;2.22;;;22.90;91.20;;;;;;5072630;28;20083;-61
2021/11/07 05:35:41;;;;;;;7.75;2.28;;;22.90;92.00;;;;;;5070170;28;20127;-60
2021/11/07 05:38:08;;;;;;;4.00;2.45;;;23.00;92.10;;;;;;5068788;28;20025;-66
2021/11/07 05:40:36;;;;;;;3.58;3.00;;;23.00;91.90;;;;;;5069173;28;20087;-63
2021/11/07 05:43:03;;;;;;;5.53;3.00;;;23.00;91.60;;;;;;5072250;28;20024;-59
2021/11/07 05:45:31;;;;;;;5.40;2.83;;;23.00;91.00;;;;;;5070990;28;20431;-63
2021/11/07 05:47:58;;;;;;;6.22;2.55;;;22.90;91.30;;;;;;5071512;28;20036;-63
2021/11/07 05:50:26;;;;;;;4.07;2.00;;;22.80;90.40;;;;;;5068029;28;20032;-66
2021/11/07 05:52:54;;;;;;;2.80;1.50;;;22.80;89.30;;;;;;5072445;28;20032;-70
2021/11/07 05:55:21;;;;;;;4.18;2.05;;;22.70;90.10;;;;;;5072237;28;20028;-61
2021/11/07 05:57:49;;;;;;;8.48;4.47;;;22.70;90.20;;;;;;5071508;28;20051;-63
2021/11/07 06:00:20;;;;;;;5.00;2.50;;;22.70;91.20;;;;;;5068417;28;20378;-65
2021/11/07 06:02:48;;;;;;;10.52;4.03;;;22.60;90.60;;;;;;5072210;28;20016;-64
2021/11/07 06:05:16;;;;;;;6.85;3.72;;;22.70;91.20;;;;;;5071685;28;20366;-70
2021/11/07 06:07:44;;;;;;;8.57;3.28;;;22.60;91.70;;;;;;5071279;28;20104;-63
2021/11/07 06:10:11;;;;;;;7.63;3.47;;;22.60;91.60;;;;;;5068630;28;20029;-63
2021/11/07 06:12:39;;;;;;;3.83;2.83;;;22.60;92.10;;;;;;5069949;28;20519;-61
2021/11/07 06:15:08;;;;;;;3.70;2.65;;;22.60;91.10;;;;;;5071310;28;20114;-64
2021/11/07 06:17:35;;;;;;;6.65;3.03;;;22.60;91.90;;;;;;5071711;28;20086;-65
2021/11/07 06:20:05;;;;;;;6.03;3.78;;;22.50;90.80;;;;;;5068054;28;20158;-64
2021/11/07 06:22:33;;;;;;;4.18;2.70;;;22.50;91.70;;;;;;5070957;28;20016;-62
2021/11/07 06:25:00;;;;;;;7.25;2.20;;;22.50;91.70;;;;;;5071077;28;20031;-63
2021/11/07 06:27:30;;;;;;;7.22;2.15;;;22.60;91.00;;;;;;5070794;28;20032;-64
2021/11/07 06:29:58;;;;;;;4.60;2.42;;;22.50;91.60;;;;;;5067480;28;20017;-59
2021/11/07 06:32:25;;;;;;;3.28;1.58;;;22.50;90.30;;;;;;5067577;28;20028;-69
2021/11/07 06:34:53;;;;;;;4.28;2.83;;;22.40;90.00;;;;;;5069844;28;20549;-63
2021/11/07 06:37:20;;;;;;;3.47;2.38;;;22.50;90.90;;;;;;5070333;28;20040;-65
2021/11/07 06:39:49;;;;;;;5.00;2.10;;;22.40;90.50;;;;;;5067464;28;20550;-65
2021/11/07 06:42:18;;;;;;;3.00;1.40;;;22.40;91.20;;;;;;5071102;28;20020;-59
2021/11/07 06:44:45;;;;;;;2.75;1.55;;;22.40;90.70;;;;;;5070610;28;20499;-57
2021/11/07 06:47:12;;;;;;;4.03;2.25;;;22.40;91.20;;;;;;5070678;28;20029;-62
2021/11/07 06:49:40;;;;;;;5.75;2.25;;;22.50;91.40;;;;;;5067556;28;20116;-60
2021/11/07 06:52:07;;;;;;;3.72;2.50;;;22.50;91.30;;;;;;5070754;28;20020;-64
2021/11/07 06:54:35;;;;;;;5.53;2.72;;;22.50;91.50;;;;;;5067718;28;20037;-64
2021/11/07 06:57:03;;;;;;;5.15;2.28;;;22.50;91.50;;;;;;5070568;28;20131;-64
2021/11/07 06:59:30;;;;;;;3.83;2.05;;;22.50;91.40;;;;;;5066602;28;20044;-60
2021/11/07 07:01:58;;;;;;;4.35;2.38;;;22.60;91.60;;;;;;5071078;28;20021;-63
2021/11/07 07:04:26;;;;;;;6.40;2.45;;;22.60;91.60;;;;;;5069919;28;20028;-58
2021/11/07 07:06:54;;;;;;;5.18;2.35;;;22.60;91.60;;;;;;5070420;28;20016;-63
2021/11/07 07:09:29;;;;;;;2.97;2.00;;;22.60;91.70;;;;;;5065808;28;20028;-62
2021/11/07 07:12:14;;;;;;;4.47;2.10;;;22.60;91.70;;;;;;5070027;28;20028;-61
2021/11/07 07:15:00;;;;;;;2.67;1.80;;;22.60;91.70;;;;;;5066808;28;20098;-60
2021/11/07 07:17:47;;;;;;;3.47;2.15;;;22.60;91.70;;;;;;5068440;28;20027;-59
2021/11/07 07:33:49;;;;;;;22.63;13.93;;;22.60;91.80;;;;;;5070296;28;20166;-61
2021/11/07 07:36:17;;;;;;;72.72;48.05;;;22.60;91.80;;;;;;5068198;28;20064;-51
2021/11/07 07:38:45;;;;;;;148.85;96.60;;;22.60;91.80;;;;;;5065492;28;20090;-54
2021/11/07 07:41:12;;;;;;;153.98;101.47;;;22.60;91.80;;;;;;5069912;28;20020;-64
2021/11/07 07:43:40;;;;;;;198.43;132.95;;;22.60;91.70;;;;;;5068206;28;20112;-55
2021/11/07 07:46:11;;;;;;;230.82;153.35;;;22.60;91.70;;;;;;5068120;28;20086;-59
2021/11/07 07:48:45;;;;;;;221.95;148.50;;;22.60;91.70;;;;;;5065597;28;20074;-56
2021/11/07 07:51:15;;;;;;;209.60;143.10;;;22.60;91.70;;;;;;5070062;28;20108;-56
2021/11/07 07:53:44;;;;;;;223.85;154.68;;;22.60;91.70;;;;;;5069035;28;20032;-59
2021/11/07 07:56:13;;;;;;;214.82;146.65;;;22.60;91.80;;;;;;5069618;28;20037;-54
2021/11/07 07:58:41;;;;;;;211.77;143.35;;;22.60;91.90;;;;;;5066285;28;20078;-60
2021/11/07 08:01:09;;;;;;;199.73;136.50;;;22.60;91.80;;;;;;5069391;28;20021;-61
2021/11/07 08:03:37;;;;;;;198.13;135.77;;;22.60;91.80;;;;;;5069865;28;20024;-60
2021/11/07 08:06:05;;;;;;;203.32;134.43;;;22.60;91.80;;;;;;5070596;28;20024;-58
2021/11/07 08:08:32;;;;;;;184.38;126.63;;;22.60;91.80;;;;;;5066433;28;20741;-57
2021/11/07 08:10:59;;;;;;;181.43;126.50;;;22.60;91.80;;;;;;5066558;28;21611;-60
2021/11/07 08:13:27;;;;;;;176.25;120.10;;;22.60;91.80;;;;;;5070282;28;20450;-55
2021/11/07 08:15:55;;;;;;;181.20;121.43;;;22.60;91.80;;;;;;5069607;28;20158;-62
2021/11/07 08:18:23;;;;;;;178.82;116.80;;;22.60;91.80;;;;;;5066734;28;20028;-62
2021/11/07 08:20:50;;;;;;;164.13;114.40;;;22.60;91.80;;;;;;5067276;28;20038;-56
2021/11/07 08:23:22;;;;;;;176.32;120.15;;;22.60;91.80;;;;;;5069755;28;20542;-53
2021/11/07 08:25:50;;;;;;;132.73;91.68;;;22.50;91.80;;;;;;5069255;28;20467;-60
2021/11/07 08:28:20;;;;;;;132.98;90.97;;;22.50;91.60;;;;;;5067447;28;20447;-58
2021/11/07 08:30:55;;;;;;;133.10;87.35;;;22.50;91.70;;;;;;5068238;28;20035;-62
2021/11/07 08:33:23;;;;;;;131.63;87.10;;;22.50;91.80;;;;;;5069402;28;20028;-59
2021/11/07 08:35:51;;;;;;;141.55;97.63;;;22.50;91.70;;;;;;5068249;28;20210;-52
2021/11/07 08:38:27;;;;;;;145.57;99.75;;;22.50;91.70;;;;;;5067037;28;20035;-58
2021/11/07 08:41:01;;;;;;;154.43;101.68;;;22.50;91.70;;;;;;5068588;28;20028;-54
2021/11/07 09:00:32;;;;;;;146.65;98.57;;;22.40;91.80;;;;;;5066198;28;20031;-55
2021/11/07 09:03:16;;;;;;;142.18;98.05;;;22.50;91.80;;;;;;5067175;28;20028;-53
2021/11/07 09:06:13;;;;;;;143.05;97.15;;;22.40;91.80;;;;;;5070145;28;20196;-50
2021/11/07 09:08:41;;;;;;;137.30;93.85;;;22.40;91.80;;;;;;5067734;28;20328;-53
2021/11/07 09:11:13;;;;;;;136.40;92.00;;;22.40;91.80;;;;;;5070885;28;20025;-61
2021/11/07 09:13:45;;;;;;;120.35;84.57;;;22.40;91.80;;;;;;5069164;28;20024;-62
2021/11/07 09:16:14;;;;;;;111.95;79.45;;;22.40;91.80;;;;;;5069755;28;20029;-57
2021/11/07 09:19:31;;;;;;;113.07;75.40;;;22.40;91.80;;;;;;5069094;28;20402;-65
2021/11/07 09:22:02;;;;;;;114.80;80.10;;;22.40;91.80;;;;;;5072217;28;20040;-62
2021/11/07 09:24:50;;;;;;;123.78;82.88;;;22.40;91.90;;;;;;5072678;28;20025;-54
2021/11/07 09:28:31;;;;;;;123.28;83.93;;;22.40;91.80;;;;;;5074990;28;20025;-63
2021/11/07 09:38:09;;;;;;;123.60;86.15;;;22.30;91.90;;;;;;5075761;28;20075;-59
2021/11/07 09:40:43;;;;;;;121.68;86.07;;;22.30;91.90;;;;;;5074762;28;20193;-52
2021/11/07 09:45:52;;;;;;;116.95;81.82;;;22.30;91.90;;;;;;5075434;28;20028;-62
2021/11/07 09:48:32;;;;;;;103.55;73.22;;;22.30;91.90;;;;;;5075356;28;20021;-59
2021/11/07 09:51:00;;;;;;;112.88;78.20;;;22.20;91.90;;;;;;5075316;28;20070;-62
2021/11/07 09:53:28;;;;;;;114.82;77.47;;;22.20;91.90;;;;;;5074608;28;20379;-59
2021/11/07 09:55:56;;;;;;;104.20;75.82;;;22.20;92.00;;;;;;5075107;28;20572;-55
2021/11/07 09:58:40;;;;;;;109.05;76.78;;;22.20;92.00;;;;;;5075132;28;20473;-64
2021/11/07 10:01:07;;;;;;;112.78;78.00;;;22.20;92.20;;;;;;5075149;28;20067;-61
2021/11/07 10:03:40;;;;;;;101.53;73.30;;;22.10;91.90;;;;;;5075161;28;20044;-64
2021/11/07 10:06:28;;;;;;;101.22;72.40;;;22.10;91.90;;;;;;5074913;28;20023;-66
2021/11/07 10:09:01;;;;;;;100.30;72.53;;;22.10;92.00;;;;;;5070469;28;20047;-68
2021/11/07 10:11:34;;;;;;;109.55;72.22;;;22.10;92.00;;;;;;5070933;28;20041;-65
2021/11/07 10:14:16;;;;;;;105.18;72.18;;;22.10;92.00;;;;;;5071740;28;20054;-59
2021/11/07 10:16:51;;;;;;;;;;;22.10;92.10;;;;;;5070086;28;20047;-58
2021/11/07 10:19:34;;;;;;;99.57;69.80;;;22.10;92.00;;;;;;5054261;28;19911;-57
2021/11/07 10:22:02;;;;;;;99.35;72.30;;;22.00;92.00;;;;;;5070384;28;20039;-60
2021/11/07 10:24:35;;;;;;;100.50;71.47;;;22.00;92.10;;;;;;5071287;28;20028;-62
2021/11/07 10:27:08;;;;;;;99.03;69.45;;;22.00;92.00;;;;;;5072112;28;20035;-58
2021/11/07 10:29:45;;;;;;;98.75;69.57;;;22.00;92.00;;;;;;5071859;28;20040;-55
2021/11/07 10:32:28;;;;;;;95.35;67.50;;;22.10;92.10;;;;;;5066371;28;20108;-60
2021/11/07 10:35:48;;;;;;;100.13;69.45;;;22.00;92.00;;;;;;5071805;28;20043;-59
2021/11/07 10:47:11;;;;;;;93.32;64.68;;;22.00;92.00;;;;;;5069482;28;20486;-54
2021/11/07 10:52:52;;;;;;;86.05;61.15;;;21.90;92.00;;;;;;5082341;28;20031;-54
2021/11/07 10:55:24;;;;;;;82.07;61.20;;;21.90;92.10;;;;;;5070577;28;20036;-57
2021/11/07 10:57:55;;;;;;;86.97;60.38;;;21.80;92.10;;;;;;5064920;28;20040;-58
2021/11/07 11:00:35;;;;;;;83.53;59.35;;;21.90;92.20;;;;;;5067092;28;20028;-52
2021/11/07 11:03:08;;;;;;;82.85;58.05;;;21.80;92.20;;;;;;5070928;28;20096;-56
2021/11/07 11:05:49;;;;;;;85.82;60.95;;;21.80;92.10;;;;;;5070321;28;20028;-54
2021/11/07 11:08:27;;;;;;;86.90;61.15;;;21.80;92.10;;;;;;5070317;28;20024;-55
2021/11/07 11:11:03;;;;;;;86.22;60.95;;;21.80;92.10;;;;;;5066383;28;20119;-59
2021/11/07 11:14:22;;;;;;;86.22;61.80;;;21.80;92.20;;;;;;5067412;28;20452;-53
2021/11/07 11:25:08;;;;;;;83.80;59.42;;;21.80;92.20;;;;;;5072426;28;20097;-59
2021/11/07 11:32:48;;;;;;;74.88;55.25;;;21.70;92.40;;;;;;5072933;28;20442;-62
2021/11/07 11:45:28;;;;;;;74.95;54.05;;;21.70;92.40;;;;;;5070811;28;20028;-66
2021/11/07 11:51:22;;;;;;;77.28;54.03;;;21.70;92.50;;;;;;5069715;28;20043;-60
2021/11/07 12:03:27;;;;;;;69.00;49.15;;;21.70;92.70;;;;;;5042863;28;20062;-61
2021/11/07 12:06:01;;;;;;;71.35;48.90;;;21.70;92.70;;;;;;5045570;28;20020;-64
2021/11/07 12:13:53;;;;;;;68.50;47.47;;;21.70;92.70;;;;;;5044635;28;20102;-61
2021/11/07 12:16:56;;;;;;;64.68;48.70;;;21.70;92.60;;;;;;5048483;28;20479;-63
2021/11/07 12:19:48;;;;;;;;;;;21.70;92.60;;;;;;5049736;28;20040;-58
2021/11/07 12:22:25;;;;;;;65.90;45.90;;;21.70;92.60;;;;;;5042732;28;19908;-60
2021/11/07 12:24:53;;;;;;;61.45;45.13;;;21.70;92.70;;;;;;5049180;28;20025;-60
2021/11/07 12:27:43;;;;;;;63.30;45.53;;;21.70;92.70;;;;;;5049694;28;20413;-60
2021/11/07 12:30:20;;;;;;;70.50;48.25;;;21.70;92.60;;;;;;5049492;28;20059;-68
2021/11/07 12:32:49;;;;;;;59.25;43.90;;;21.70;92.60;;;;;;5043298;28;20543;-66
2021/11/07 12:35:26;;;;;;;64.50;45.42;;;21.70;92.60;;;;;;5051041;28;20048;-64
2021/11/07 12:40:58;;;;;;;62.03;43.50;;;21.60;92.50;;;;;;5052351;28;20502;-61
2021/11/07 12:43:45;;;;;;;59.60;43.67;;;21.60;92.70;;;;;;5050991;28;20185;-63
2021/11/07 12:46:18;;;;;;;61.95;42.75;;;21.60;92.50;;;;;;5051806;28;20028;-60
2021/11/07 12:48:49;;;;;;;59.13;42.70;;;21.60;92.50;;;;;;5050663;28;20060;-66
2021/11/07 12:51:20;;;;;;;54.92;41.33;;;21.60;92.60;;;;;;5050741;28;20028;-57
2021/11/07 12:54:06;;;;;;;54.47;40.00;;;21.60;92.60;;;;;;5050739;28;20036;-53
2021/11/07 12:56:52;;;;;;;57.35;42.17;;;21.60;92.60;;;;;;5064860;28;20479;-60
2021/11/07 12:59:26;;;;;;;54.97;39.75;;;21.60;92.60;;;;;;5069362;28;20536;-61
2021/11/07 13:02:05;;;;;;;53.42;38.58;;;21.60;92.80;;;;;;5069953;28;20123;-59
2021/11/07 13:05:40;;;;;;;53.83;39.75;;;21.60;92.60;;;;;;5072992;28;20036;-61
2021/11/07 13:10:59;;;;;;;56.78;40.33;;;21.50;92.50;;;;;;5070724;28;20108;-67
2021/11/07 13:13:38;;;;;;;54.28;39.42;;;21.50;92.50;;;;;;5068892;28;20029;-66
2021/11/07 13:22:01;;;;;;;50.20;36.33;;;21.50;92.50;;;;;;5069447;28;20044;-62
2021/11/07 13:25:20;;;;;;;46.33;33.72;;;21.50;92.50;;;;;;5070655;28;20029;-60
2021/11/07 13:27:38;;;;;;;47.35;34.28;;;21.40;92.40;;;;;;5069566;28;20041;-64
2021/11/07 13:30:14;;;;;;;51.92;34.90;;;21.40;92.40;;;;;;5070297;28;20021;-62
2021/11/07 13:32:41;;;;;;;47.42;35.67;;;21.50;92.50;;;;;;5069142;28;20048;-63
2021/11/07 13:35:27;;;;;;;48.70;35.63;;;21.50;92.50;;;;;;5072948;28;20037;-59
2021/11/07 13:38:05;;;;;;;48.20;36.08;;;21.40;92.50;;;;;;5072263;28;20032;-62
2021/11/07 13:40:37;;;;;;;49.42;34.83;;;21.40;92.50;;;;;;5069356;28;20040;-65
2021/11/07 13:43:15;;;;;;;48.22;34.88;;;21.40;92.50;;;;;;5069607;28;20048;-65
2021/11/07 13:45:50;;;;;;;48.03;35.40;;;21.40;92.50;;;;;;5071352;28;20042;-56
2021/11/07 13:48:24;;;;;;;49.20;34.47;;;21.40;92.50;;;;;;5071653;28;20538;-60
2021/11/07 13:50:53;;;;;;;46.28;33.72;;;21.40;92.50;;;;;;5071784;28;20043;-57
2021/11/07 13:53:24;;;;;;;47.38;33.10;;;21.40;92.50;;;;;;5068912;28;20128;-59
2021/11/07 13:56:00;;;;;;;46.13;33.60;;;21.30;92.50;;;;;;5072484;28;20047;-56
2021/11/07 13:58:30;;;;;;;48.25;34.05;;;21.30;92.50;;;;;;5068346;28;20051;-61
2021/11/07 14:01:01;;;;;;;47.33;34.42;;;21.40;92.50;;;;;;5072220;28;20039;-60
2021/11/07 14:03:29;;;;;;;45.33;33.58;;;21.30;92.40;;;;;;5069387;28;20028;-56
2021/11/07 14:08:47;;;;;;;45.35;33.13;;;21.30;92.40;;;;;;5070274;28;20029;-56
2021/11/07 14:11:18;;;;;;;43.88;31.67;;;21.30;92.40;;;;;;5071705;28;20020;-54
2021/11/07 14:13:52;;;;;;;41.10;31.00;;;21.30;92.40;;;;;;5069471;28;20032;-59
2021/11/07 14:16:30;;;;;;;44.03;31.17;;;21.30;92.40;;;;;;5071924;28;20028;-58
2021/11/07 14:18:59;;;;;;;39.50;30.08;;;21.30;92.70;;;;;;5071784;28;20024;-61
2021/11/07 14:21:31;;;;;;;43.63;31.52;;;21.30;92.40;;;;;;5070047;28;20597;-61
2021/11/07 14:24:08;;;;;;;41.60;31.02;;;21.30;92.40;;;;;;5070209;28;20036;-58
2021/11/07 14:29:15;;;;;;;40.80;29.90;;;21.30;92.40;;;;;;5072566;28;20024;-56
2021/11/07 14:32:13;;;;;;;41.45;30.13;;;21.20;92.40;;;;;;5067264;28;20110;-67
2021/11/07 14:37:32;;;;;;;39.75;28.92;;;21.20;92.40;;;;;;5071637;28;20097;-58
2021/11/07 14:40:10;;;;;;;37.70;28.00;;;21.20;92.40;;;;;;5073757;28;20448;-67
2021/11/07 14:43:31;;;;;;;44.30;30.95;;;21.30;92.40;;;;;;5075205;28;20475;-64
2021/11/07 15:02:29;;;;;;;33.90;26.75;;;21.20;92.50;;;;;;5070082;28;20373;-58
2021/11/07 15:05:02;;;;;;;37.53;27.73;;;21.10;92.40;;;;;;5071063;28;20055;-59
2021/11/07 15:07:48;;;;;;;39.85;28.70;;;21.10;92.40;;;;;;5069695;28;20585;-55
2021/11/07 15:21:45;;;;;;;36.75;27.15;;;21.10;92.40;;;;;;5033913;28;20557;-56
2021/11/07 15:24:23;;;;;;;33.65;25.23;;;21.10;92.40;;;;;;5063469;28;20514;-58
2021/11/07 15:27:01;;;;;;;32.15;23.75;;;21.10;92.70;;;;;;5070259;28;20033;-58
2021/11/07 15:29:36;;;;;;;33.40;25.50;;;21.10;92.40;;;;;;5070788;28;20109;-58
2021/11/07 15:32:10;;;;;;;34.20;24.98;;;21.10;92.40;;;;;;5069647;28;20024;-65
2021/11/07 15:34:42;;;;;;;30.30;24.92;;;21.10;92.40;;;;;;5066445;28;20036;-58
2021/11/07 15:37:23;;;;;;;32.30;24.83;;;21.10;92.40;;;;;;5067646;28;20047;-57
2021/11/07 15:39:52;;;;;;;31.67;23.40;;;21.10;92.40;;;;;;5068009;28;20029;-56
2021/11/07 15:42:34;;;;;;;31.48;23.33;;;21.10;92.40;;;;;;5068493;28;20052;-57
2021/11/07 15:45:09;;;;;;;35.55;24.88;;;21.00;92.40;;;;;;5069259;28;20054;-59
2021/11/07 15:47:41;;;;;;;27.63;22.25;;;21.10;92.40;;;;;;5070697;28;20037;-58
2021/11/07 15:50:23;;;;;;;;;;;21.00;92.40;;;;;;5069644;28;20454;-66
2021/11/07 15:53:44;;;;;;;35.50;23.80;;;21.00;92.40;;;;;;5064111;28;19923;-61
2021/11/07 16:11:30;;;;;;;28.05;21.48;;;21.00;92.40;;;;;;5070117;28;20027;-63